createdAt,value
2017-05-08T00:02:22.729Z,28.92
2017-05-08T00:04:49.418Z,30.55
2017-05-08T00:07:16.083Z,32.90
2017-05-08T00:09:42.782Z,32.70
2017-05-08T00:12:09.450Z,31.65
2017-05-08T00:14:36.119Z,34.82
2017-05-08T00:17:03.086Z,32.68
2017-05-08T00:19:29.746Z,36.32
2017-05-08T00:21:56.410Z,36.33
2017-05-08T00:24:23.078Z,31.18
2017-05-08T00:26:49.753Z,34.60
2017-05-08T00:29:16.419Z,33.33
2017-05-08T00:31:43.112Z,34.63
2017-05-08T00:34:09.769Z,31.08
2017-05-08T00:36:36.454Z,32.37
2017-05-08T00:39:03.119Z,28.57
2017-05-08T00:41:29.787Z,26.82
2017-05-08T00:43:56.455Z,25.85
2017-05-08T00:46:23.158Z,24.90
2017-05-08T00:48:49.831Z,24.05
2017-05-08T00:51:16.498Z,22.88
2017-05-08T00:53:43.169Z,23.90
2017-05-08T00:56:09.834Z,22.32
2017-05-08T00:58:36.502Z,20.42
2017-05-08T01:01:03.171Z,21.93
2017-05-08T01:03:29.850Z,19.67
2017-05-08T01:05:56.515Z,20.55
2017-05-08T01:08:23.178Z,18.98
2017-05-08T01:10:49.842Z,18.93
2017-05-08T01:13:16.506Z,19.87
2017-05-08T01:15:43.170Z,16.70
2017-05-08T01:18:09.830Z,17.75
2017-05-08T01:20:36.490Z,18.02
2017-05-08T01:23:03.167Z,17.02
2017-05-08T01:25:29.845Z,17.72
2017-05-08T01:27:56.507Z,18.10
2017-05-08T01:30:23.194Z,18.05
2017-05-08T01:32:49.863Z,19.53
2017-05-08T01:35:16.554Z,19.60
2017-05-08T01:37:43.510Z,19.40
2017-05-08T01:40:10.211Z,20.17
2017-05-08T01:42:36.886Z,21.03
2017-05-08T01:45:03.553Z,20.57
2017-05-08T01:47:30.249Z,19.98
2017-05-08T01:49:56.906Z,19.97
2017-05-08T01:52:23.573Z,21.82
2017-05-08T01:54:50.247Z,22.05
2017-05-08T01:57:16.910Z,22.03
2017-05-08T01:59:43.580Z,20.42
2017-05-08T02:02:10.274Z,22.08
2017-05-08T02:04:36.939Z,21.32
2017-05-08T02:07:03.626Z,21.25
2017-05-08T02:09:30.301Z,21.93
2017-05-08T02:11:57.010Z,21.30
2017-05-08T02:14:23.675Z,23.15
2017-05-08T02:16:50.337Z,21.77
2017-05-08T02:19:16.999Z,21.95
2017-05-08T02:21:43.662Z,22.33
2017-05-08T02:24:10.350Z,22.20
2017-05-08T02:26:37.019Z,21.12
2017-05-08T02:29:03.682Z,20.43
2017-05-08T02:31:30.346Z,20.67
2017-05-08T02:33:57.031Z,24.55
2017-05-08T02:36:23.706Z,23.73
2017-05-08T02:38:50.398Z,23.88
2017-05-08T02:41:17.058Z,26.18
2017-05-08T02:43:43.730Z,24.80
2017-05-08T02:46:10.401Z,20.32
2017-05-08T02:48:37.063Z,22.83
2017-05-08T02:51:03.746Z,23.82
2017-05-08T02:53:30.416Z,23.78
2017-05-08T02:55:57.086Z,25.70
2017-05-08T02:58:23.757Z,24.03
2017-05-08T03:00:50.447Z,22.78
2017-05-08T03:03:17.114Z,21.65
2017-05-08T03:05:43.778Z,22.22
2017-05-08T03:08:10.447Z,23.93
2017-05-08T03:10:37.109Z,23.00
2017-05-08T03:13:03.786Z,20.20
2017-05-08T03:15:30.477Z,23.20
2017-05-08T03:17:57.154Z,21.47
2017-05-08T03:20:23.846Z,22.92
2017-05-08T03:22:50.511Z,21.78
2017-05-08T03:25:17.175Z,19.80
2017-05-08T03:27:43.841Z,20.73
2017-05-08T03:30:10.502Z,21.47
2017-05-08T03:32:37.165Z,20.80
2017-05-08T03:35:03.832Z,18.77
2017-05-08T03:37:30.494Z,19.35
2017-05-08T03:39:57.163Z,19.08
2017-05-08T03:42:23.831Z,19.27
2017-05-08T03:44:50.493Z,19.67
2017-05-08T03:47:17.182Z,17.50
2017-05-08T03:49:43.848Z,18.37
2017-05-08T03:52:10.509Z,17.30
2017-05-08T03:54:37.174Z,18.77
2017-05-08T03:57:03.842Z,18.52
2017-05-08T03:59:30.550Z,16.63
2017-05-08T04:01:57.214Z,17.42
2017-05-08T04:04:23.899Z,18.12
2017-05-08T04:06:50.566Z,16.15
2017-05-08T04:09:17.231Z,16.95
2017-05-08T04:11:43.906Z,16.58
2017-05-08T04:14:10.595Z,17.58
2017-05-08T04:16:37.258Z,16.65
2017-05-08T04:19:03.929Z,16.05
2017-05-08T04:21:30.607Z,17.25
2017-05-08T04:23:57.293Z,15.75
2017-05-08T04:26:23.958Z,17.15
2017-05-08T04:28:50.630Z,16.35
2017-05-08T04:31:17.311Z,16.87
2017-05-08T04:33:43.984Z,17.57
2017-05-08T04:36:10.651Z,17.48
2017-05-08T04:38:37.328Z,15.20
2017-05-08T04:41:04.009Z,16.18
2017-05-08T04:43:30.670Z,14.43
2017-05-08T04:45:57.339Z,15.72
2017-05-08T04:48:24.020Z,15.35
2017-05-08T04:50:50.690Z,15.68
2017-05-08T04:53:17.355Z,16.52
2017-05-08T04:55:44.018Z,14.03
2017-05-08T04:58:10.686Z,15.75
2017-05-08T05:00:37.354Z,15.72
2017-05-08T05:03:04.019Z,15.55
2017-05-08T05:05:30.684Z,16.10
2017-05-08T05:07:57.346Z,14.48
2017-05-08T05:10:24.056Z,16.12
2017-05-08T05:12:51.168Z,15.43
2017-05-08T05:15:17.846Z,14.48
2017-05-08T05:17:44.518Z,15.88
2017-05-08T05:20:11.178Z,15.28
2017-05-08T05:22:37.845Z,16.47
2017-05-08T05:25:04.514Z,13.77
2017-05-08T05:27:31.196Z,10.83
2017-05-08T05:29:57.863Z,11.48
2017-05-08T05:32:24.559Z,10.17
2017-05-08T05:34:51.219Z,8.63
2017-05-08T05:37:17.879Z,8.77
2017-05-08T05:39:44.538Z,8.53
2017-05-08T05:42:11.238Z,9.10
2017-05-08T05:44:37.900Z,8.00
2017-05-08T05:47:04.555Z,8.78
2017-05-08T05:49:31.247Z,7.67
2017-05-08T05:51:57.916Z,7.72
2017-05-08T05:54:24.571Z,7.33
2017-05-08T05:56:51.234Z,7.60
2017-05-08T05:59:17.895Z,7.42
2017-05-08T06:01:44.554Z,7.15
2017-05-08T06:04:11.210Z,7.02
2017-05-08T06:06:37.863Z,6.75
2017-05-08T06:09:04.543Z,6.28
2017-05-08T06:11:31.198Z,7.10
2017-05-08T06:13:57.886Z,6.38
2017-05-08T06:16:24.542Z,5.78
2017-05-08T06:18:51.194Z,6.62
2017-05-08T06:21:17.859Z,7.15
2017-05-08T06:23:44.510Z,5.55
2017-05-08T06:26:11.195Z,6.00
2017-05-08T06:28:37.847Z,5.87
2017-05-08T06:31:04.503Z,6.43
2017-05-08T06:33:31.165Z,6.07
2017-05-08T06:35:57.850Z,7.03
2017-05-08T06:38:24.505Z,6.20
2017-05-08T06:40:51.463Z,6.42
2017-05-08T06:43:18.126Z,7.65
2017-05-08T06:45:44.786Z,6.30
2017-05-08T06:48:11.461Z,6.18
2017-05-08T06:50:38.114Z,5.78
2017-05-08T06:53:04.767Z,6.27
2017-05-08T06:55:31.426Z,5.77
2017-05-08T06:57:58.102Z,5.38
2017-05-08T07:00:24.759Z,6.48
2017-05-08T07:02:51.438Z,6.98
2017-05-08T07:05:18.099Z,7.08
2017-05-08T07:07:44.792Z,5.62
2017-05-08T07:10:11.454Z,5.15
2017-05-08T07:12:38.110Z,6.07
2017-05-08T07:15:04.762Z,5.17
2017-05-08T07:17:31.418Z,6.00
2017-05-08T07:19:58.099Z,6.08
2017-05-08T07:22:24.754Z,6.52
2017-05-08T07:24:51.434Z,6.15
2017-05-08T07:27:18.093Z,5.82
2017-05-08T07:29:44.751Z,6.32
2017-05-08T07:32:11.418Z,7.68
2017-05-08T07:34:38.079Z,7.42
2017-05-08T07:37:04.739Z,6.93
2017-05-08T07:39:31.403Z,5.92
2017-05-08T07:41:58.062Z,6.72
2017-05-08T07:44:24.742Z,6.47
2017-05-08T07:46:51.399Z,6.27
2017-05-08T07:49:18.059Z,5.32
2017-05-08T07:51:44.719Z,5.52
2017-05-08T07:54:11.378Z,5.90
2017-05-08T07:56:38.038Z,5.65
2017-05-08T07:59:04.703Z,5.90
2017-05-08T08:01:31.374Z,6.53
2017-05-08T08:03:58.026Z,5.77
2017-05-08T08:06:24.690Z,7.13
2017-05-08T08:08:51.346Z,6.25
2017-05-08T08:11:18.027Z,7.03
2017-05-08T08:13:44.687Z,6.72
2017-05-08T08:16:11.371Z,6.53
2017-05-08T08:18:38.031Z,6.97
2017-05-08T08:21:04.691Z,6.45
2017-05-08T08:23:31.634Z,6.67
2017-05-08T08:25:58.287Z,5.97
2017-05-08T08:28:24.938Z,6.27
2017-05-08T08:30:51.603Z,6.25
2017-05-08T08:33:18.262Z,6.67
2017-05-08T08:35:44.926Z,6.35
2017-05-08T08:38:11.591Z,5.53
2017-05-08T08:40:38.253Z,6.53
2017-05-08T08:43:04.911Z,8.13
2017-05-08T08:45:31.570Z,6.60
2017-05-08T08:47:58.229Z,6.87
2017-05-08T08:50:24.895Z,6.57
2017-05-08T08:52:51.563Z,7.12
2017-05-08T08:55:18.226Z,7.02
2017-05-08T08:57:44.891Z,6.75
2017-05-08T09:00:11.555Z,6.53
2017-05-08T09:02:38.215Z,6.23
2017-05-08T09:05:04.871Z,6.10
2017-05-08T09:07:31.559Z,5.78
2017-05-08T09:09:58.224Z,6.60
2017-05-08T09:12:24.887Z,6.23
2017-05-08T09:14:51.546Z,6.88
2017-05-08T09:17:18.222Z,6.48
2017-05-08T09:19:44.886Z,7.05
2017-05-08T09:22:11.579Z,6.43
2017-05-08T09:24:38.242Z,8.50
2017-05-08T09:27:04.899Z,8.32
2017-05-08T09:29:31.554Z,7.80
2017-05-08T09:31:58.211Z,7.62
2017-05-08T09:34:24.878Z,8.42
2017-05-08T09:36:51.543Z,8.30
2017-05-08T09:39:18.224Z,7.95
2017-05-08T09:41:44.883Z,9.12
2017-05-08T09:44:11.573Z,8.77
2017-05-08T09:46:38.235Z,8.52
2017-05-08T09:49:04.918Z,7.88
2017-05-08T09:51:31.596Z,8.58
2017-05-08T09:53:58.270Z,8.57
2017-05-08T09:56:24.940Z,7.72
2017-05-08T09:58:51.598Z,9.13
2017-05-08T10:01:18.258Z,9.18
2017-05-08T10:03:44.922Z,8.18
2017-05-08T10:06:11.586Z,9.13
2017-05-08T10:08:38.250Z,8.72
2017-05-08T10:11:04.911Z,9.23
2017-05-08T10:13:31.566Z,9.73
2017-05-08T10:15:58.232Z,9.57
2017-05-08T10:18:24.902Z,8.80
2017-05-08T10:20:51.582Z,8.42
2017-05-08T10:23:18.249Z,8.58
2017-05-08T10:25:44.934Z,9.20
2017-05-08T10:28:11.598Z,9.17
2017-05-08T10:30:38.305Z,11.07
2017-05-08T10:33:04.978Z,8.92
2017-05-08T10:35:31.642Z,14.20
2017-05-08T10:37:58.302Z,7.95
2017-05-08T10:40:24.967Z,8.68
2017-05-08T10:42:51.652Z,8.12
2017-05-08T10:45:18.398Z,7.40
2017-05-08T10:47:45.058Z,8.28
2017-05-08T10:50:11.727Z,9.23
2017-05-08T10:52:38.468Z,8.65
2017-05-08T10:55:05.244Z,10.02
2017-05-08T10:57:31.944Z,8.02
2017-05-08T10:59:58.624Z,8.95
2017-05-08T11:02:25.401Z,8.68
2017-05-08T11:04:52.068Z,9.25
2017-05-08T11:07:18.737Z,10.35
2017-05-08T11:09:45.403Z,11.98
2017-05-08T11:12:12.075Z,10.00
2017-05-08T11:14:38.760Z,10.30
2017-05-08T11:17:05.423Z,12.38
2017-05-08T11:19:32.091Z,10.18
2017-05-08T11:21:58.770Z,10.10
2017-05-08T11:24:25.443Z,9.07
2017-05-08T11:26:52.112Z,9.10
2017-05-08T11:29:18.803Z,9.23
2017-05-08T11:31:45.480Z,11.03
2017-05-08T11:34:12.193Z,10.23
2017-05-08T11:36:38.866Z,8.82
2017-05-08T11:39:05.534Z,8.77
2017-05-08T11:41:32.212Z,8.97
2017-05-08T11:43:58.875Z,9.58
2017-05-08T11:46:25.534Z,9.62
2017-05-08T11:48:52.212Z,9.28
2017-05-08T11:51:18.887Z,10.42
2017-05-08T11:53:45.559Z,9.28
2017-05-08T11:56:12.250Z,10.07
2017-05-08T11:58:38.950Z,10.07
2017-05-08T12:01:05.642Z,10.55
2017-05-08T12:03:32.311Z,8.70
2017-05-08T12:05:59.006Z,10.33
2017-05-08T12:08:25.679Z,10.03
2017-05-08T12:10:52.381Z,9.17
2017-05-08T12:13:19.054Z,5.80
2017-05-08T12:15:45.728Z,7.68
2017-05-08T12:18:12.398Z,7.42
2017-05-08T12:20:39.062Z,7.58
2017-05-08T12:23:05.739Z,6.67
2017-05-08T12:25:32.408Z,8.38
2017-05-08T12:27:59.074Z,5.12
2017-05-08T12:30:26.521Z,5.10
2017-05-08T12:32:53.204Z,4.40
2017-05-08T12:35:19.863Z,4.65
2017-05-08T12:37:46.539Z,4.87
2017-05-08T12:40:13.206Z,4.42
2017-05-08T12:42:39.882Z,4.58
2017-05-08T12:45:06.548Z,5.98
2017-05-08T12:47:33.279Z,5.90
2017-05-08T12:49:59.945Z,4.97
2017-05-08T12:52:26.609Z,5.60
2017-05-08T12:54:53.302Z,5.62
2017-05-08T12:57:19.987Z,5.45
2017-05-08T12:59:46.671Z,6.10
2017-05-08T13:02:13.341Z,5.92
2017-05-08T13:04:40.043Z,6.20
2017-05-08T13:07:06.719Z,5.47
2017-05-08T13:09:33.407Z,5.37
2017-05-08T13:12:00.090Z,6.27
2017-05-08T13:14:26.790Z,5.50
2017-05-08T13:16:53.471Z,5.83
2017-05-08T13:19:20.429Z,5.68
2017-05-08T13:21:47.110Z,6.60
2017-05-08T13:24:13.774Z,5.92
2017-05-08T13:26:40.458Z,5.90
2017-05-08T13:29:07.118Z,6.30
2017-05-08T13:31:33.802Z,5.72
2017-05-08T13:34:00.466Z,5.68
2017-05-08T13:36:27.218Z,6.07
2017-05-08T13:38:53.897Z,6.18
2017-05-08T13:41:20.568Z,6.05
2017-05-08T13:43:47.260Z,5.67
2017-05-08T13:46:13.928Z,6.13
2017-05-08T13:48:40.612Z,5.95
2017-05-08T13:51:07.272Z,5.80
2017-05-08T13:53:33.954Z,7.45
2017-05-08T13:56:00.622Z,6.63
2017-05-08T13:58:27.311Z,5.52
2017-05-08T14:00:53.982Z,5.65
2017-05-08T14:03:20.649Z,5.80
2017-05-08T14:05:47.343Z,5.08
2017-05-08T14:08:14.011Z,5.60
2017-05-08T14:10:40.699Z,5.60
2017-05-08T14:13:07.376Z,5.85
2017-05-08T14:15:34.067Z,5.98
2017-05-08T14:18:00.735Z,5.50
2017-05-08T14:20:27.432Z,6.32
2017-05-08T14:22:54.086Z,5.25
2017-05-08T14:25:20.751Z,5.73
2017-05-08T14:27:47.441Z,6.17
2017-05-08T14:30:14.119Z,6.33
2017-05-08T14:32:40.799Z,5.95
2017-05-08T14:35:07.463Z,6.02
2017-05-08T14:37:34.147Z,6.33
2017-05-08T14:40:00.830Z,6.27
2017-05-08T14:42:27.515Z,5.38
2017-05-08T14:44:54.183Z,6.12
2017-05-08T14:47:20.842Z,6.33
2017-05-08T14:49:47.526Z,5.95
2017-05-08T14:52:14.188Z,6.60
2017-05-08T14:54:40.859Z,6.65
2017-05-08T14:57:07.554Z,5.75
2017-05-08T14:59:34.224Z,6.62
2017-05-08T15:02:00.890Z,6.72
2017-05-08T15:04:27.583Z,6.87
2017-05-08T15:06:54.250Z,6.62
2017-05-08T15:09:20.918Z,6.73
2017-05-08T15:11:47.608Z,5.77
2017-05-08T15:14:14.268Z,5.65
2017-05-08T15:16:40.927Z,5.68
2017-05-08T15:19:07.598Z,6.82
2017-05-08T15:21:34.276Z,7.00
2017-05-08T15:24:00.948Z,7.07
2017-05-08T15:26:27.623Z,6.67
2017-05-08T15:28:54.292Z,6.07
2017-05-08T15:31:20.951Z,5.10
2017-05-08T15:33:47.658Z,4.70
2017-05-08T15:36:14.330Z,3.22
2017-05-08T15:38:40.998Z,3.57
2017-05-08T15:41:07.672Z,3.73
2017-05-08T15:43:34.359Z,4.10
2017-05-08T15:46:01.039Z,3.57
2017-05-08T15:48:27.698Z,4.15
2017-05-08T15:50:54.355Z,3.90
2017-05-08T15:53:21.022Z,4.18
2017-05-08T15:55:47.693Z,4.15
2017-05-08T15:58:14.358Z,4.53
2017-05-08T16:00:41.029Z,4.95
2017-05-08T16:03:07.714Z,4.13
2017-05-08T16:05:34.379Z,4.00
2017-05-08T16:08:01.038Z,4.50
2017-05-08T16:10:27.723Z,5.48
2017-05-08T16:12:54.391Z,4.12
2017-05-08T16:15:21.090Z,4.83
2017-05-08T16:17:47.766Z,4.00
2017-05-08T16:20:14.460Z,4.22
2017-05-08T16:22:41.153Z,4.40
2017-05-08T16:25:07.834Z,3.93
2017-05-08T16:27:34.499Z,3.78
2017-05-08T16:30:01.383Z,2.88
2017-05-08T16:32:28.183Z,3.75
2017-05-08T16:34:54.874Z,3.77
2017-05-08T16:37:21.575Z,3.87
2017-05-08T16:39:48.237Z,3.57
2017-05-08T16:42:14.932Z,3.90
2017-05-08T16:44:41.610Z,3.72
2017-05-08T16:47:08.303Z,3.38
2017-05-08T16:49:34.972Z,3.52
2017-05-08T16:52:01.635Z,3.12
2017-05-08T16:54:28.331Z,3.22
2017-05-08T16:56:55.021Z,3.18
2017-05-08T16:59:21.682Z,3.08
2017-05-08T17:01:48.338Z,2.80
2017-05-08T17:04:15.010Z,2.85
2017-05-08T17:06:41.675Z,3.18
2017-05-08T17:09:08.336Z,3.08
2017-05-08T17:11:35.002Z,3.62
2017-05-08T17:14:01.690Z,2.98
2017-05-08T17:16:28.362Z,2.78
2017-05-08T17:18:55.054Z,3.08
2017-05-08T17:21:21.743Z,3.40
2017-05-08T17:23:48.443Z,3.28
2017-05-08T17:26:15.116Z,2.80
2017-05-08T17:28:41.774Z,3.05
2017-05-08T17:31:08.442Z,2.80
2017-05-08T17:33:35.103Z,2.90
2017-05-08T17:36:01.770Z,3.78
2017-05-08T17:38:28.429Z,2.32
2017-05-08T17:40:55.082Z,3.08
2017-05-08T17:43:21.743Z,2.70
2017-05-08T17:45:48.407Z,3.40
2017-05-08T17:48:15.083Z,3.60
2017-05-08T17:50:42.115Z,2.68
2017-05-08T17:53:08.775Z,2.67
2017-05-08T17:55:35.440Z,2.78
2017-05-08T17:58:02.106Z,3.38
2017-05-08T18:00:28.774Z,3.30
2017-05-08T18:02:55.430Z,3.30
2017-05-08T18:05:22.102Z,3.40
2017-05-08T18:07:48.766Z,3.33
2017-05-08T18:10:15.422Z,3.03
2017-05-08T18:12:42.099Z,3.35
2017-05-08T18:15:08.762Z,3.62
2017-05-08T18:17:35.435Z,4.13
2017-05-08T18:20:02.100Z,3.18
2017-05-08T18:22:28.758Z,4.47
2017-05-08T18:24:55.427Z,4.02
2017-05-08T18:27:22.087Z,4.25
2017-05-08T18:29:48.822Z,4.18
2017-05-08T18:32:15.484Z,4.57
2017-05-08T18:34:42.175Z,4.60
2017-05-08T18:37:08.834Z,3.72
2017-05-08T18:39:35.490Z,3.88
2017-05-08T18:42:02.156Z,3.75
2017-05-08T18:44:28.859Z,4.15
2017-05-08T18:46:55.592Z,4.58
2017-05-08T18:49:22.279Z,3.53
2017-05-08T18:51:48.947Z,4.12
2017-05-08T18:54:15.616Z,4.58
2017-05-08T18:56:42.276Z,4.67
2017-05-08T18:59:08.934Z,5.20
2017-05-08T19:01:35.607Z,4.90
2017-05-08T19:04:02.263Z,4.48
2017-05-08T19:06:28.919Z,4.33
2017-05-08T19:08:55.602Z,5.02
2017-05-08T19:11:22.271Z,4.17
2017-05-08T19:13:48.930Z,4.42
2017-05-08T19:16:15.591Z,4.42
2017-05-08T19:18:42.246Z,5.20
2017-05-08T19:21:08.908Z,4.42
2017-05-08T19:23:35.594Z,4.42
2017-05-08T19:26:02.256Z,4.12
2017-05-08T19:28:28.914Z,4.50
2017-05-08T19:30:55.581Z,3.60
2017-05-08T19:33:22.267Z,4.27
2017-05-08T19:35:48.954Z,3.93
2017-05-08T19:38:15.674Z,3.73
2017-05-08T19:40:42.462Z,3.78
2017-05-08T19:43:09.130Z,4.23
2017-05-08T19:45:35.814Z,4.27
2017-05-08T19:48:02.591Z,3.80
2017-05-08T19:50:29.286Z,4.23
2017-05-08T19:52:55.960Z,3.93
2017-05-08T19:55:22.659Z,4.50
2017-05-08T19:57:49.347Z,4.90
2017-05-08T20:00:16.010Z,4.37
2017-05-08T20:02:42.674Z,5.02
2017-05-08T20:05:09.340Z,4.78
2017-05-08T20:07:35.999Z,4.75
2017-05-08T20:10:02.668Z,5.67
2017-05-08T20:12:29.324Z,4.50
2017-05-08T20:14:56.011Z,5.05
2017-05-08T20:17:22.676Z,4.97
2017-05-08T20:19:49.335Z,5.67
2017-05-08T20:22:16.006Z,5.58
2017-05-08T20:24:42.670Z,4.37
2017-05-08T20:27:09.347Z,5.40
2017-05-08T20:29:36.005Z,4.95
2017-05-08T20:32:02.667Z,5.42
2017-05-08T20:34:29.339Z,5.53
2017-05-08T20:36:56.019Z,5.40
2017-05-08T20:39:22.710Z,5.50
2017-05-08T20:41:49.379Z,5.38
2017-05-08T20:44:16.091Z,6.08
2017-05-08T20:46:42.764Z,5.83
2017-05-08T20:49:09.434Z,6.67
2017-05-08T20:51:36.097Z,6.35
2017-05-08T20:54:02.767Z,6.27
2017-05-08T20:56:29.438Z,5.38
2017-05-08T20:58:56.112Z,5.92
2017-05-08T21:01:22.844Z,5.05
2017-05-08T21:03:49.517Z,4.83
2017-05-08T21:06:16.208Z,5.40
2017-05-08T21:08:42.871Z,5.38
2017-05-08T21:11:09.544Z,5.27
2017-05-08T21:13:36.234Z,5.13
2017-05-08T21:16:02.924Z,6.57
2017-05-08T21:18:29.620Z,5.75
2017-05-08T21:20:56.291Z,6.55
2017-05-08T21:23:22.985Z,7.17
2017-05-08T21:25:49.664Z,5.90
2017-05-08T21:28:16.327Z,5.63
2017-05-08T21:30:43.032Z,6.35
2017-05-08T21:33:09.704Z,6.10
2017-05-08T21:35:36.459Z,6.35
2017-05-08T21:38:03.128Z,6.35
2017-05-08T21:40:29.850Z,6.05
2017-05-08T21:42:56.712Z,6.40
2017-05-08T21:45:23.410Z,6.20
2017-05-08T21:47:50.102Z,8.07
2017-05-08T21:50:16.789Z,6.00
2017-05-08T21:52:43.451Z,5.93
2017-05-08T21:55:10.143Z,6.37
2017-05-08T21:57:36.841Z,6.77
2017-05-08T22:00:03.531Z,6.27
2017-05-08T22:02:30.271Z,6.25
2017-05-08T22:04:56.934Z,6.37
2017-05-08T22:07:24.799Z,6.42
2017-05-08T22:09:51.491Z,6.28
2017-05-08T22:12:18.175Z,6.38
2017-05-08T22:14:44.835Z,5.97
2017-05-08T22:17:11.539Z,6.07
2017-05-08T22:19:38.199Z,5.98
2017-05-08T22:22:04.866Z,6.43
2017-05-08T22:24:31.550Z,5.73
2017-05-08T22:26:58.234Z,5.62
2017-05-08T22:29:24.924Z,5.85
2017-05-08T22:31:51.603Z,5.53
2017-05-08T22:34:18.286Z,6.70
2017-05-08T22:36:44.950Z,5.62
2017-05-08T22:39:11.635Z,6.75
2017-05-08T22:41:38.313Z,6.38
2017-05-08T22:44:05.002Z,6.55
2017-05-08T22:46:31.663Z,6.78
2017-05-08T22:48:58.328Z,7.02
2017-05-08T22:51:25.018Z,7.12
2017-05-08T22:53:51.693Z,6.88
2017-05-08T22:56:18.377Z,6.72
2017-05-08T22:58:45.035Z,7.05
2017-05-08T23:01:11.724Z,6.57
2017-05-08T23:03:38.395Z,6.17
2017-05-08T23:06:05.079Z,6.82
2017-05-08T23:08:31.738Z,6.22
2017-05-08T23:10:58.399Z,6.68
2017-05-08T23:13:25.121Z,6.67
2017-05-08T23:15:51.779Z,6.33
2017-05-08T23:18:18.465Z,5.93
2017-05-08T23:20:45.131Z,5.33
2017-05-08T23:23:11.831Z,6.22
2017-05-08T23:25:38.495Z,5.33
2017-05-08T23:28:05.158Z,5.85
2017-05-08T23:30:31.868Z,7.03
2017-05-08T23:32:58.535Z,5.47
2017-05-08T23:35:25.243Z,5.58
2017-05-08T23:37:51.911Z,5.13
2017-05-08T23:40:18.594Z,5.90
2017-05-08T23:42:45.258Z,5.80
2017-05-08T23:45:11.938Z,5.52
2017-05-08T23:47:38.604Z,6.13
2017-05-08T23:50:05.304Z,5.70
2017-05-08T23:52:31.967Z,5.77
2017-05-08T23:54:58.634Z,5.55
2017-05-08T23:57:25.315Z,6.00
2017-05-08T23:59:51.988Z,5.98
